createdAt,value
2019-05-06T00:01:24.086Z,1.53
2019-05-06T00:03:28.844Z,1.70
2019-05-06T00:05:34.103Z,1.67
2019-05-06T00:07:38.856Z,1.53
2019-05-06T00:09:44.193Z,1.53
2019-05-06T00:11:49.082Z,1.50
2019-05-06T00:13:54.479Z,1.60
2019-05-06T00:15:59.253Z,1.40
2019-05-06T00:18:04.538Z,1.80
2019-05-06T00:20:09.490Z,1.47
2019-05-06T00:22:17.285Z,1.30
2019-05-06T00:24:23.987Z,1.60
2019-05-06T00:26:30.346Z,1.67
2019-05-06T00:28:39.694Z,1.60
2019-05-06T00:30:46.553Z,1.50
2019-05-06T00:32:51.348Z,1.67
2019-05-06T00:34:57.692Z,1.63
2019-05-06T00:37:03.942Z,1.63
2019-05-06T00:39:14.906Z,1.40
2019-05-06T00:41:30.040Z,1.80
2019-05-06T00:43:34.874Z,2.00
2019-05-06T00:45:39.600Z,1.70
2019-05-06T00:47:44.964Z,1.70
2019-05-06T00:49:49.723Z,2.03
2019-05-06T00:51:55.010Z,2.00
2019-05-06T00:54:03.859Z,2.30
2019-05-06T00:56:07.901Z,2.13
2019-05-06T00:58:14.227Z,2.30
2019-05-06T01:00:24.419Z,2.10
2019-05-06T01:02:29.253Z,1.70
2019-05-06T01:04:34.063Z,1.67
2019-05-06T01:06:38.893Z,1.53
2019-05-06T01:08:44.086Z,1.63
2019-05-06T01:10:48.915Z,1.90
2019-05-06T01:12:58.227Z,2.07
2019-05-06T01:15:04.815Z,1.90
2019-05-06T01:17:09.640Z,1.77
2019-05-06T01:19:17.283Z,2.23
2019-05-06T01:21:23.792Z,1.80
2019-05-06T01:23:28.419Z,1.93
2019-05-06T01:25:34.616Z,1.70
2019-05-06T01:27:40.607Z,1.63
2019-05-06T01:29:45.354Z,1.90
2019-05-06T01:31:50.061Z,2.07
2019-05-06T01:33:54.797Z,1.83
2019-05-06T01:35:59.453Z,2.33
2019-05-06T01:38:21.059Z,2.20
2019-05-06T01:40:27.442Z,1.73
2019-05-06T01:42:36.531Z,1.90
2019-05-06T01:44:41.303Z,1.90
2019-05-06T01:46:45.971Z,1.53
2019-05-06T01:48:50.641Z,1.60
2019-05-06T01:50:55.416Z,2.03
2019-05-06T01:53:04.871Z,1.70
2019-05-06T01:55:09.599Z,1.80
2019-05-06T01:57:14.427Z,1.57
2019-05-06T01:59:19.263Z,2.17
2019-05-06T02:01:25.118Z,1.90
2019-05-06T02:03:31.110Z,1.90
2019-05-06T02:05:35.830Z,2.00
2019-05-06T02:07:40.595Z,1.87
2019-05-06T02:09:45.264Z,1.77
2019-05-06T02:11:50.968Z,1.97
2019-05-06T02:13:55.738Z,1.80
2019-05-06T02:16:01.497Z,2.10
2019-05-06T02:18:06.227Z,1.67
2019-05-06T02:20:10.986Z,1.90
2019-05-06T02:22:18.482Z,1.60
2019-05-06T02:24:24.964Z,1.90
2019-05-06T02:26:34.343Z,1.97
2019-05-06T02:28:40.828Z,2.07
2019-05-06T02:30:59.259Z,1.67
2019-05-06T02:33:08.347Z,1.90
2019-05-06T02:35:20.885Z,2.10
2019-05-06T02:37:36.042Z,2.07
2019-05-06T02:39:43.797Z,1.90
2019-05-06T02:41:47.770Z,2.03
2019-05-06T02:43:54.110Z,2.00
2019-05-06T02:45:59.282Z,1.80
2019-05-06T02:48:05.715Z,1.90
2019-05-06T02:50:13.273Z,1.97
2019-05-06T02:52:18.125Z,1.97
2019-05-06T02:54:23.692Z,1.93
2019-05-06T02:56:28.542Z,1.83
2019-05-06T02:58:33.303Z,1.77
2019-05-06T03:00:38.067Z,2.07
2019-05-06T03:02:47.101Z,1.83
2019-05-06T03:04:52.831Z,2.10
2019-05-06T03:06:57.884Z,1.73
2019-05-06T03:09:03.139Z,2.47
2019-05-06T03:11:13.546Z,1.90
2019-05-06T03:13:18.576Z,2.10
2019-05-06T03:15:24.385Z,1.83
2019-05-06T03:17:32.684Z,2.00
2019-05-06T03:19:37.821Z,2.23
2019-05-06T03:21:45.020Z,1.83
2019-05-06T03:23:54.442Z,1.77
2019-05-06T03:25:59.316Z,1.90
2019-05-06T03:28:04.450Z,1.90
2019-05-06T03:30:09.319Z,1.80
2019-05-06T03:32:21.466Z,2.07
2019-05-06T03:34:38.312Z,1.70
2019-05-06T03:36:33.025Z,1.90
2019-05-06T03:38:33.803Z,1.87
2019-05-06T03:40:41.959Z,1.70
2019-05-06T03:42:45.026Z,1.77
2019-05-06T03:44:53.243Z,1.87
2019-05-06T03:47:13.978Z,1.73
2019-05-06T03:49:20.268Z,1.80
2019-05-06T03:51:24.999Z,2.03
2019-05-06T03:53:33.315Z,2.07
2019-05-06T03:55:37.849Z,1.87
2019-05-06T03:57:43.035Z,1.80
2019-05-06T03:59:48.105Z,2.13
2019-05-06T04:01:53.581Z,1.77
2019-05-06T04:03:59.333Z,1.93
2019-05-06T04:06:04.695Z,1.97
2019-05-06T04:08:12.784Z,1.97
2019-05-06T04:10:17.565Z,2.23
2019-05-06T04:12:23.354Z,2.10
2019-05-06T04:14:28.641Z,2.03
2019-05-06T04:16:45.791Z,2.27
2019-05-06T04:18:53.822Z,1.97
2019-05-06T04:21:13.667Z,1.80
2019-05-06T04:23:33.453Z,2.10
2019-05-06T04:25:43.549Z,1.63
2019-05-06T04:27:53.778Z,2.33
2019-05-06T04:30:04.307Z,2.50
2019-05-06T04:32:07.173Z,2.20
2019-05-06T04:34:17.973Z,2.93
2019-05-06T04:36:18.815Z,2.00
2019-05-06T04:38:23.981Z,2.60
2019-05-06T04:40:28.863Z,2.10
2019-05-06T04:42:34.518Z,2.47
2019-05-06T04:44:43.824Z,2.70
2019-05-06T04:46:48.624Z,2.23
2019-05-06T04:48:53.972Z,2.23
2019-05-06T04:50:59.093Z,2.10
2019-05-06T04:53:05.393Z,2.10
2019-05-06T04:55:14.013Z,2.47
2019-05-06T04:57:18.534Z,2.27
2019-05-06T04:59:23.451Z,2.53
2019-05-06T05:01:29.939Z,3.73
2019-05-06T05:03:34.664Z,2.93
2019-05-06T05:05:39.338Z,2.87
2019-05-06T05:07:44.113Z,2.83
2019-05-06T05:09:53.494Z,2.10
2019-05-06T05:12:02.506Z,2.23
2019-05-06T05:14:07.933Z,2.20
2019-05-06T05:16:23.240Z,2.67
2019-05-06T05:18:32.652Z,2.70
2019-05-06T05:20:45.521Z,3.13
2019-05-06T05:22:44.726Z,2.57
2019-05-06T05:24:52.392Z,3.30
2019-05-06T05:26:57.129Z,2.70
2019-05-06T05:29:04.780Z,2.57
2019-05-06T05:31:09.506Z,2.50
2019-05-06T05:33:14.532Z,2.47
2019-05-06T05:35:19.222Z,2.50
2019-05-06T05:37:23.948Z,2.13
2019-05-06T05:39:28.757Z,2.53
2019-05-06T05:41:33.466Z,2.30
2019-05-06T05:43:48.464Z,2.80
2019-05-06T05:45:54.026Z,2.50
2019-05-06T05:48:00.345Z,2.63
2019-05-06T05:50:08.250Z,2.43
2019-05-06T05:52:12.987Z,2.43
2019-05-06T05:54:17.779Z,2.17
2019-05-06T05:56:24.008Z,2.13
2019-05-06T05:58:28.932Z,2.57
2019-05-06T06:00:34.967Z,2.37
2019-05-06T06:02:39.707Z,2.50
2019-05-06T06:04:53.734Z,2.70
2019-05-06T06:06:52.108Z,2.63
2019-05-06T06:08:56.914Z,2.67
2019-05-06T06:11:12.306Z,2.50
2019-05-06T06:13:17.179Z,2.40
2019-05-06T06:15:26.535Z,2.67
2019-05-06T06:17:35.911Z,2.70
2019-05-06T06:19:42.679Z,2.77
2019-05-06T06:21:49.041Z,3.00
2019-05-06T06:24:02.783Z,3.20
2019-05-06T06:26:08.632Z,3.17
2019-05-06T06:28:13.448Z,3.10
2019-05-06T06:30:22.065Z,2.83
2019-05-06T06:32:27.942Z,2.97
2019-05-06T06:34:35.764Z,3.27
2019-05-06T06:36:57.146Z,2.93
2019-05-06T06:39:18.864Z,3.27
2019-05-06T06:41:23.782Z,3.47
2019-05-06T06:43:28.559Z,3.40
2019-05-06T06:45:33.810Z,3.57
2019-05-06T06:47:38.508Z,3.17
2019-05-06T06:49:43.286Z,2.60
2019-05-06T06:51:48.038Z,3.03
2019-05-06T06:53:53.022Z,3.30
2019-05-06T06:56:16.182Z,3.30
2019-05-06T06:58:26.754Z,2.67
2019-05-06T07:00:42.559Z,3.40
2019-05-06T07:03:04.513Z,2.90
2019-05-06T07:05:27.667Z,3.50
2019-05-06T07:07:39.523Z,3.50
2019-05-06T07:09:32.409Z,2.63
2019-05-06T07:11:37.246Z,2.80
2019-05-06T07:13:45.172Z,3.20
2019-05-06T07:15:51.408Z,3.40
2019-05-06T07:17:56.374Z,3.07
2019-05-06T07:20:05.757Z,3.20
2019-05-06T07:22:12.724Z,2.10
2019-05-06T07:24:17.468Z,2.70
2019-05-06T07:26:23.931Z,2.57
2019-05-06T07:28:32.689Z,2.90
2019-05-06T07:30:38.539Z,2.40
2019-05-06T07:32:43.360Z,2.77
2019-05-06T07:34:48.129Z,2.50
2019-05-06T07:36:52.878Z,1.93
2019-05-06T07:39:03.891Z,2.20
2019-05-06T07:41:14.427Z,2.47
2019-05-06T07:43:29.142Z,2.90
2019-05-06T07:45:42.379Z,1.90
2019-05-06T07:47:48.897Z,2.00
2019-05-06T07:49:53.665Z,2.40
2019-05-06T07:51:58.423Z,2.23
2019-05-06T07:54:03.095Z,1.90
2019-05-06T07:56:07.885Z,2.40
2019-05-06T07:58:13.857Z,2.40
2019-05-06T08:00:18.735Z,2.27
2019-05-06T08:02:23.493Z,1.80
2019-05-06T08:04:28.170Z,2.20
2019-05-06T08:06:32.909Z,2.57
2019-05-06T08:08:37.755Z,2.13
2019-05-06T08:10:42.441Z,2.40
2019-05-06T08:12:47.299Z,2.23
2019-05-06T08:14:52.518Z,1.97
2019-05-06T08:17:02.376Z,2.30
2019-05-06T08:19:07.205Z,2.40
2019-05-06T08:21:16.596Z,2.37
2019-05-06T08:23:23.026Z,2.20
2019-05-06T08:25:29.432Z,2.10
2019-05-06T08:27:34.162Z,2.17
2019-05-06T08:29:38.933Z,1.50
2019-05-06T08:31:43.673Z,1.87
2019-05-06T08:33:52.378Z,1.80
2019-05-06T08:36:10.548Z,1.90
2019-05-06T08:38:06.119Z,1.67
2019-05-06T08:40:11.957Z,1.57
2019-05-06T08:42:16.938Z,1.70
2019-05-06T08:44:22.490Z,1.93
2019-05-06T08:46:27.335Z,1.90
2019-05-06T08:48:32.483Z,1.97
2019-05-06T08:50:47.595Z,1.60
2019-05-06T08:52:56.941Z,2.37
2019-05-06T08:55:04.275Z,1.93
2019-05-06T08:57:08.190Z,2.00
2019-05-06T08:59:14.018Z,2.10
2019-05-06T09:01:37.322Z,1.80
2019-05-06T09:03:42.357Z,1.93
2019-05-06T09:05:53.252Z,1.43
2019-05-06T09:07:58.042Z,2.00
2019-05-06T09:10:02.840Z,1.90
2019-05-06T09:12:07.719Z,1.87
2019-05-06T09:14:13.828Z,2.10
2019-05-06T09:16:18.736Z,2.17
2019-05-06T09:18:24.255Z,2.30
2019-05-06T09:20:32.454Z,2.20
2019-05-06T09:22:37.036Z,2.20
2019-05-06T09:24:42.678Z,2.20
2019-05-06T09:26:52.334Z,2.30
2019-05-06T09:29:02.314Z,2.23
2019-05-06T09:31:24.867Z,2.67
2019-05-06T09:33:33.037Z,2.40
2019-05-06T09:35:37.588Z,2.07
2019-05-06T09:37:45.088Z,2.07
2019-05-06T09:39:49.870Z,2.60
2019-05-06T09:41:58.087Z,2.33
2019-05-06T09:44:03.800Z,2.30
2019-05-06T09:46:08.497Z,2.13
2019-05-06T09:48:24.521Z,1.87
2019-05-06T09:50:45.326Z,2.40
2019-05-06T09:52:46.568Z,2.37
2019-05-06T09:54:59.139Z,2.43
2019-05-06T09:57:08.489Z,2.10
2019-05-06T09:59:13.211Z,2.23
2019-05-06T10:01:18.297Z,2.27
2019-05-06T10:03:23.111Z,2.87
2019-05-06T10:05:27.814Z,2.90
2019-05-06T10:07:33.934Z,2.30
2019-05-06T10:09:43.422Z,2.67
2019-05-06T10:11:48.182Z,2.87
2019-05-06T10:13:52.933Z,2.80
2019-05-06T10:15:58.335Z,2.27
2019-05-06T10:18:12.565Z,2.93
2019-05-06T10:20:16.113Z,2.33
2019-05-06T10:22:23.143Z,2.20
2019-05-06T10:24:27.331Z,2.30
2019-05-06T10:26:35.426Z,3.10
2019-05-06T10:28:45.151Z,2.50
2019-05-06T10:30:49.995Z,2.83
2019-05-06T10:32:59.171Z,2.83
2019-05-06T10:35:05.999Z,2.40
2019-05-06T10:37:19.247Z,2.73
2019-05-06T10:39:24.296Z,2.20
2019-05-06T10:41:35.428Z,2.77
2019-05-06T10:44:07.620Z,2.53
2019-05-06T10:46:13.771Z,2.73
2019-05-06T10:48:19.567Z,2.57
2019-05-06T10:50:24.518Z,2.73
2019-05-06T10:52:30.873Z,3.80
2019-05-06T10:54:35.689Z,2.93
2019-05-06T10:56:53.820Z,3.80
2019-05-06T10:58:52.744Z,2.87
2019-05-06T11:01:08.047Z,2.60
2019-05-06T11:03:22.440Z,3.17
2019-05-06T11:05:26.868Z,3.83
2019-05-06T11:07:34.976Z,3.10
2019-05-06T11:09:38.049Z,2.97
2019-05-06T11:11:42.933Z,3.20
2019-05-06T11:13:48.664Z,3.47
2019-05-06T11:15:55.556Z,3.57
2019-05-06T11:18:04.788Z,3.30
2019-05-06T11:20:11.420Z,2.93
2019-05-06T11:22:16.067Z,2.90
2019-05-06T11:24:22.984Z,3.20
2019-05-06T11:26:30.156Z,3.47
2019-05-06T11:28:45.565Z,3.43
2019-05-06T11:30:57.960Z,3.77
2019-05-06T11:33:22.387Z,4.07
2019-05-06T11:35:32.549Z,4.03
2019-05-06T11:37:49.853Z,3.83
2019-05-06T11:39:48.682Z,3.33
2019-05-06T11:42:06.305Z,3.73
2019-05-06T11:43:59.843Z,3.27
2019-05-06T11:46:06.236Z,3.93
2019-05-06T11:48:14.380Z,3.73
2019-05-06T11:50:17.386Z,4.20
2019-05-06T11:52:22.645Z,4.50
2019-05-06T11:54:33.575Z,3.83
2019-05-06T11:56:48.857Z,4.13
2019-05-06T11:58:45.531Z,4.57
2019-05-06T12:00:52.573Z,4.73
2019-05-06T12:02:56.828Z,4.10
2019-05-06T12:05:04.870Z,3.87
2019-05-06T12:07:12.288Z,3.73
2019-05-06T12:09:17.154Z,4.37
2019-05-06T12:11:23.637Z,3.53
2019-05-06T12:13:33.728Z,4.00
2019-05-06T12:15:38.720Z,3.30
2019-05-06T12:17:43.444Z,4.07
2019-05-06T12:19:48.647Z,3.10
2019-05-06T12:21:53.389Z,3.50
2019-05-06T12:23:58.179Z,3.23
2019-05-06T12:26:02.927Z,3.17
2019-05-06T12:28:07.657Z,3.47
2019-05-06T12:30:14.836Z,3.47
2019-05-06T12:32:23.925Z,3.10
2019-05-06T12:34:28.617Z,3.37
2019-05-06T12:36:33.367Z,2.93
2019-05-06T12:38:39.739Z,3.00
2019-05-06T12:40:47.345Z,2.87
2019-05-06T12:42:53.764Z,3.10
2019-05-06T12:45:03.286Z,3.50
2019-05-06T12:47:21.225Z,4.63
2019-05-06T12:49:25.973Z,3.47
2019-05-06T12:51:32.285Z,3.73
2019-05-06T12:53:42.716Z,3.50
2019-05-06T12:55:46.391Z,3.20
2019-05-06T12:57:53.106Z,3.87
2019-05-06T12:59:57.686Z,3.10
2019-05-06T13:02:02.864Z,4.73
2019-05-06T13:04:07.725Z,3.97
2019-05-06T13:06:15.384Z,4.53
2019-05-06T13:08:22.687Z,4.80
2019-05-06T13:10:26.911Z,5.30
2019-05-06T13:12:33.743Z,4.77
2019-05-06T13:14:38.057Z,5.37
2019-05-06T13:16:42.833Z,5.97
2019-05-06T13:18:51.342Z,4.80
2019-05-06T13:20:54.019Z,5.57
2019-05-06T13:23:09.081Z,5.03
2019-05-06T13:25:13.607Z,5.00
2019-05-06T13:27:19.381Z,5.33
2019-05-06T13:29:26.202Z,5.23
2019-05-06T13:31:32.695Z,4.90
2019-05-06T13:33:39.164Z,5.57
2019-05-06T13:35:44.069Z,5.00
2019-05-06T13:37:48.761Z,5.00
2019-05-06T13:39:56.521Z,4.40
2019-05-06T13:42:03.958Z,3.63
2019-05-06T13:44:10.334Z,3.13
2019-05-06T13:46:19.397Z,3.00
2019-05-06T13:48:25.851Z,2.77
2019-05-06T13:50:35.042Z,2.67
2019-05-06T13:52:42.487Z,2.90
2019-05-06T13:54:48.400Z,2.30
2019-05-06T13:56:53.142Z,2.03
2019-05-06T13:58:57.827Z,2.00
2019-05-06T14:01:04.827Z,2.20
2019-05-06T14:03:09.577Z,1.63
2019-05-06T14:05:14.331Z,2.10
2019-05-06T14:07:19.126Z,1.87
2019-05-06T14:09:32.441Z,2.13
2019-05-06T14:11:32.312Z,1.73
2019-05-06T14:13:37.017Z,1.73
2019-05-06T14:15:42.143Z,1.73
2019-05-06T14:17:46.892Z,1.60
2019-05-06T14:19:53.375Z,1.83
2019-05-06T14:21:58.059Z,1.90
2019-05-06T14:24:02.874Z,1.80
2019-05-06T14:26:12.574Z,2.10
2019-05-06T14:28:35.624Z,1.70
2019-05-06T14:30:42.976Z,1.93
2019-05-06T14:32:48.753Z,2.13
2019-05-06T14:34:53.787Z,1.83
2019-05-06T14:36:58.613Z,2.47
2019-05-06T14:39:05.145Z,2.17
2019-05-06T14:41:18.170Z,1.83
2019-05-06T14:43:22.926Z,1.93
2019-05-06T14:45:27.683Z,2.07
2019-05-06T14:47:34.078Z,2.07
2019-05-06T14:49:38.831Z,1.57
2019-05-06T14:51:43.721Z,2.20
2019-05-06T14:53:48.472Z,2.30
2019-05-06T14:55:55.085Z,2.67
2019-05-06T14:58:00.052Z,3.00
2019-05-06T15:00:07.522Z,2.47
2019-05-06T15:02:13.254Z,2.37
2019-05-06T15:04:18.262Z,2.30
2019-05-06T15:06:23.037Z,2.47
2019-05-06T15:08:27.804Z,2.70
2019-05-06T15:10:32.587Z,2.23
2019-05-06T15:12:37.355Z,2.13
2019-05-06T15:14:42.593Z,2.37
2019-05-06T15:16:48.688Z,2.60
2019-05-06T15:18:57.879Z,2.43
2019-05-06T15:21:29.008Z,2.57
2019-05-06T15:23:08.999Z,2.40
2019-05-06T15:25:13.787Z,2.13
2019-05-06T15:27:18.563Z,2.30
2019-05-06T15:29:23.805Z,3.60
2019-05-06T15:31:43.264Z,3.27
2019-05-06T15:33:52.880Z,2.40
2019-05-06T15:36:09.190Z,2.90
2019-05-06T15:38:15.745Z,3.60
2019-05-06T15:40:31.917Z,3.53
2019-05-06T15:42:28.841Z,2.83
2019-05-06T15:44:37.070Z,3.20
2019-05-06T15:46:43.109Z,3.23
2019-05-06T15:48:49.061Z,3.30
2019-05-06T15:50:56.571Z,3.30
2019-05-06T15:53:04.070Z,2.80
2019-05-06T15:55:08.844Z,3.43
2019-05-06T15:57:13.665Z,2.90
2019-05-06T15:59:18.928Z,2.80
2019-05-06T16:01:23.882Z,2.50
2019-05-06T16:03:28.639Z,3.17
2019-05-06T16:05:34.400Z,3.23
2019-05-06T16:07:39.599Z,2.67
2019-05-06T16:09:44.478Z,3.40
2019-05-06T16:11:49.364Z,3.17
2019-05-06T16:13:54.182Z,3.33
2019-05-06T16:15:58.959Z,2.93
2019-05-06T16:18:04.618Z,3.90
2019-05-06T16:20:09.680Z,3.20
2019-05-06T16:22:14.494Z,2.83
2019-05-06T16:24:23.644Z,3.83
2019-05-06T16:26:28.627Z,2.73
2019-05-06T16:28:34.866Z,3.23
2019-05-06T16:30:42.668Z,3.40
2019-05-06T16:32:47.600Z,2.90
2019-05-06T16:34:52.600Z,2.20
2019-05-06T16:37:07.260Z,2.50
2019-05-06T16:39:14.990Z,2.37
2019-05-06T16:41:22.674Z,2.27
2019-05-06T16:43:34.064Z,2.37
2019-05-06T16:45:37.168Z,2.50
2019-05-06T16:47:44.365Z,2.43
2019-05-06T16:49:48.313Z,2.57
2019-05-06T16:51:54.877Z,2.30
2019-05-06T16:54:02.108Z,2.53
2019-05-06T16:56:08.648Z,2.50
2019-05-06T16:58:15.051Z,2.60
2019-05-06T17:00:22.515Z,2.80
2019-05-06T17:02:28.966Z,2.30
2019-05-06T17:04:42.583Z,2.30
2019-05-06T17:06:56.185Z,2.40
2019-05-06T17:09:16.498Z,2.30
2019-05-06T17:11:08.964Z,2.40
2019-05-06T17:15:32.518Z,2.67
2019-05-06T17:17:43.417Z,1.97
2019-05-06T17:19:43.761Z,2.00
2019-05-06T17:21:48.677Z,2.70
2019-05-06T17:23:54.577Z,2.37
2019-05-06T17:25:59.455Z,3.37
2019-05-06T17:28:22.543Z,2.40
2019-05-06T17:30:28.905Z,1.80
2019-05-06T17:32:37.993Z,1.60
2019-05-06T17:34:44.409Z,2.00
2019-05-06T17:36:53.034Z,2.53
2019-05-06T17:38:57.565Z,2.40
2019-05-06T17:41:03.020Z,2.77
2019-05-06T17:43:07.803Z,2.10
2019-05-06T17:45:32.192Z,2.50
2019-05-06T17:47:41.970Z,2.40
2019-05-06T17:49:46.811Z,2.60
2019-05-06T17:52:05.550Z,2.33
2019-05-06T17:54:13.083Z,2.37
2019-05-06T17:56:17.867Z,2.30
2019-05-06T17:58:22.620Z,2.20
2019-05-06T18:00:27.427Z,2.00
2019-05-06T18:02:32.677Z,2.20
2019-05-06T18:04:37.941Z,2.20
2019-05-06T18:06:43.817Z,2.17
2019-05-06T18:08:48.593Z,2.10
2019-05-06T18:10:53.348Z,2.03
2019-05-06T18:13:02.922Z,2.10
2019-05-06T18:15:07.319Z,2.90
2019-05-06T18:17:12.599Z,2.47
2019-05-06T18:19:41.319Z,2.27
2019-05-06T18:21:46.080Z,2.20
2019-05-06T18:23:52.252Z,2.33
2019-05-06T18:25:57.102Z,2.70
2019-05-06T18:28:04.731Z,2.23
2019-05-06T18:30:19.357Z,2.40
2019-05-06T18:32:16.020Z,2.50
2019-05-06T18:34:23.053Z,2.20
2019-05-06T18:36:27.135Z,2.50
2019-05-06T18:38:33.475Z,2.70
2019-05-06T18:40:42.366Z,2.60
2019-05-06T18:42:47.233Z,2.43
2019-05-06T18:44:51.991Z,2.20
2019-05-06T18:46:56.681Z,2.27
2019-05-06T18:49:02.519Z,2.50
2019-05-06T18:51:07.586Z,2.00
2019-05-06T18:53:13.356Z,2.17
2019-05-06T18:55:18.188Z,2.03
2019-05-06T18:57:22.963Z,2.13
2019-05-06T18:59:27.728Z,2.17
2019-05-06T19:01:33.301Z,2.27
2019-05-06T19:03:59.241Z,2.20
2019-05-06T19:06:03.905Z,2.20
2019-05-06T19:08:21.887Z,2.17
2019-05-06T19:10:33.068Z,2.00
2019-05-06T19:12:41.179Z,2.40
2019-05-06T19:14:43.780Z,2.50
2019-05-06T19:16:52.191Z,2.27
2019-05-06T19:18:55.945Z,2.43
2019-05-06T19:21:02.633Z,2.30
2019-05-06T19:23:07.241Z,2.67
2019-05-06T19:25:14.459Z,2.37
2019-05-06T19:27:18.410Z,2.60
2019-05-06T19:29:23.338Z,2.50
2019-05-06T19:31:28.193Z,2.37
2019-05-06T19:33:34.830Z,2.03
2019-05-06T19:35:39.979Z,2.73
2019-05-06T19:37:44.901Z,2.30
2019-05-06T19:39:52.501Z,2.20
2019-05-06T19:42:02.940Z,2.27
2019-05-06T19:44:09.609Z,2.07
2019-05-06T19:46:14.348Z,2.40
2019-05-06T19:48:19.087Z,2.57
2019-05-06T19:50:26.666Z,2.43
2019-05-06T19:52:32.621Z,2.47
2019-05-06T19:54:37.496Z,2.50
2019-05-06T19:56:42.467Z,2.43
2019-05-06T19:58:50.033Z,2.27
2019-05-06T20:00:57.686Z,2.27
2019-05-06T20:03:02.796Z,2.53
2019-05-06T20:05:24.934Z,2.70
2019-05-06T20:07:44.253Z,2.77
2019-05-06T20:09:53.347Z,2.60
2019-05-06T20:12:12.258Z,2.50
2019-05-06T20:14:19.417Z,2.97
2019-05-06T20:16:24.141Z,2.93
2019-05-06T20:18:32.852Z,2.60
2019-05-06T20:20:38.691Z,3.10
2019-05-06T20:22:43.455Z,2.97
2019-05-06T20:24:48.175Z,3.07
2019-05-06T20:26:52.880Z,3.27
2019-05-06T20:28:57.591Z,3.00
2019-05-06T20:31:02.604Z,3.00
2019-05-06T20:33:07.460Z,2.87
2019-05-06T20:35:13.016Z,3.50
2019-05-06T20:37:18.012Z,3.60
2019-05-06T20:39:23.196Z,3.10
2019-05-06T20:41:28.034Z,3.37
2019-05-06T20:43:32.937Z,3.10
2019-05-06T20:45:37.782Z,2.97
2019-05-06T20:47:42.965Z,3.10
2019-05-06T20:49:47.712Z,2.73
2019-05-06T20:51:52.616Z,2.83
2019-05-06T20:53:57.308Z,3.37
2019-05-06T20:56:02.820Z,2.83
2019-05-06T20:58:07.623Z,3.03
2019-05-06T21:00:12.837Z,3.10
2019-05-06T21:02:17.666Z,3.07
2019-05-06T21:04:25.243Z,3.00
2019-05-06T21:06:32.027Z,2.83
2019-05-06T21:08:36.438Z,3.17
2019-05-06T21:10:42.524Z,3.20
2019-05-06T21:12:47.414Z,2.57
2019-05-06T21:14:52.091Z,3.03
2019-05-06T21:16:56.850Z,2.97
2019-05-06T21:19:03.190Z,3.20
2019-05-06T21:21:10.904Z,3.27
2019-05-06T21:23:16.037Z,3.57
2019-05-06T21:25:22.591Z,3.47
2019-05-06T21:27:27.584Z,3.20
2019-05-06T21:29:32.568Z,3.27
2019-05-06T21:31:37.336Z,3.07
2019-05-06T21:33:42.596Z,3.43
2019-05-06T21:35:48.845Z,3.17
2019-05-06T21:37:53.732Z,3.10
2019-05-06T21:39:58.476Z,3.57
2019-05-06T21:42:05.918Z,3.23
2019-05-06T21:44:13.275Z,3.43
2019-05-06T21:46:18.568Z,3.73
2019-05-06T21:48:23.385Z,3.80
2019-05-06T21:50:28.125Z,3.43
2019-05-06T21:52:38.870Z,3.40
2019-05-06T21:54:39.217Z,3.27
2019-05-06T21:56:43.936Z,3.53
2019-05-06T21:58:48.599Z,2.90
2019-05-06T22:00:55.007Z,3.03
2019-05-06T22:02:59.741Z,3.40
2019-05-06T22:05:07.251Z,3.00
2019-05-06T22:07:15.007Z,2.97
2019-05-06T22:09:19.813Z,3.07
2019-05-06T22:11:24.625Z,3.30
2019-05-06T22:13:33.215Z,3.13
2019-05-06T22:15:38.265Z,2.90
2019-05-06T22:17:43.093Z,3.30
2019-05-06T22:19:52.440Z,2.97
2019-05-06T22:21:58.651Z,3.20
2019-05-06T22:24:04.875Z,3.50
2019-05-06T22:26:15.592Z,3.13
2019-05-06T22:28:16.097Z,3.20
2019-05-06T22:30:23.953Z,3.13
2019-05-06T22:32:28.705Z,3.10
2019-05-06T22:34:33.515Z,2.83
2019-05-06T22:36:41.290Z,2.77
2019-05-06T22:38:49.005Z,3.33
2019-05-06T22:40:53.781Z,3.07
2019-05-06T22:42:58.515Z,3.50
2019-05-06T22:45:03.823Z,3.23
2019-05-06T22:47:08.521Z,3.43
2019-05-06T22:49:13.462Z,3.30
2019-05-06T22:51:18.313Z,2.97
2019-05-06T22:53:24.914Z,3.27
2019-05-06T22:55:32.955Z,3.17
2019-05-06T22:57:38.819Z,3.40
2019-05-06T22:59:46.663Z,3.57
2019-05-06T23:02:02.434Z,3.37
2019-05-06T23:04:08.025Z,3.53
2019-05-06T23:06:12.802Z,2.90
2019-05-06T23:08:26.728Z,2.80
2019-05-06T23:10:33.520Z,2.53
2019-05-06T23:12:37.909Z,2.93
2019-05-06T23:14:42.658Z,2.63
2019-05-06T23:16:47.398Z,3.07
2019-05-06T23:18:52.490Z,3.03
2019-05-06T23:20:57.351Z,3.40
2019-05-06T23:23:02.422Z,2.97
2019-05-06T23:25:08.592Z,3.10
2019-05-06T23:27:13.372Z,2.93
2019-05-06T23:29:18.036Z,3.07
2019-05-06T23:31:24.534Z,3.20
2019-05-06T23:33:29.500Z,3.10
2019-05-06T23:35:34.300Z,3.10
2019-05-06T23:38:15.470Z,3.23
2019-05-06T23:40:56.847Z,3.50
2019-05-06T23:43:38.078Z,2.53
2019-05-06T23:46:19.520Z,3.37
2019-05-06T23:49:01.910Z,3.60
2019-05-06T23:51:46.207Z,3.13
2019-05-06T23:54:28.013Z,2.63
2019-05-06T23:56:43.982Z,2.80
2019-05-06T23:58:48.820Z,2.90
